Time;durP1;ratioP1;P1;durP2;ratioP2;P2;SDS_P1;SDS_P2;PMS_P1;PMS_P2;Temp;Humidity;BMP_temperature;BMP_pressure;BME280_temperature;BME280_humidity;BME280_pressure;Samples;Min_cycle;Max_cycle;Signal;HPM_P1;HPM_P2
2023/09/08 00:01:14;;;;;;;5.97;4.63;;;;;;;;;;5103604;28;20407;-65
2023/09/08 00:03:42;;;;;;;8.27;4.57;;;;;;;;;;5104515;28;20058;-65
2023/09/08 00:06:10;;;;;;;7.55;5.10;;;;;;;;;;5105177;28;20058;-65
2023/09/08 00:08:37;;;;;;;6.93;5.00;;;;;;;;;;5104069;28;20048;-65
2023/09/08 00:11:04;;;;;;;7.32;4.60;;;;;;;;;;5094479;28;20407;-64
2023/09/08 00:13:32;;;;;;;7.63;4.63;;;;;;;;;;5106888;28;20079;-65
2023/09/08 00:15:59;;;;;;;5.45;4.60;;;;;;;;;;5081753;28;20380;-65
2023/09/08 00:18:26;;;;;;;7.78;4.60;;;;;;;;;;5111598;28;20044;-64
2023/09/08 00:20:55;;;;;;;7.32;5.07;;;;;;;;;;5105625;28;20051;-65
2023/09/08 00:23:22;;;;;;;9.30;4.93;;;;;;;;;;5101871;28;20044;-65
2023/09/08 00:25:50;;;;;;;7.22;5.00;;;;;;;;;;5103338;28;20048;-65
2023/09/08 00:28:17;;;;;;;7.95;4.68;;;;;;;;;;5104909;28;20487;-65
2023/09/08 00:30:45;;;;;;;7.47;5.10;;;;;;;;;;5101259;28;20063;-64
2023/09/08 00:33:13;;;;;;;6.15;4.60;;;;;;;;;;5101628;28;20352;-65
2023/09/08 00:35:40;;;;;;;6.90;5.00;;;;;;;;;;5093769;28;20056;-64
2023/09/08 00:38:09;;;;;;;12.45;4.88;;;;;;;;;;5100018;28;20357;-64
2023/09/08 00:40:36;;;;;;;6.45;4.85;;;;;;;;;;5097275;28;20455;-65
2023/09/08 00:43:03;;;;;;;8.90;5.43;;;;;;;;;;5087581;28;20059;-65
2023/09/08 00:45:31;;;;;;;7.30;5.05;;;;;;;;;;5105042;28;20047;-64
2023/09/08 00:47:58;;;;;;;7.28;5.28;;;;;;;;;;5099872;28;20549;-65
2023/09/08 00:50:25;;;;;;;8.23;5.50;;;;;;;;;;5101745;28;20044;-64
2023/09/08 00:52:53;;;;;;;6.10;5.03;;;;;;;;;;5098010;28;20044;-65
2023/09/08 00:55:21;;;;;;;9.35;5.40;;;;;;;;;;5106655;28;20040;-65
2023/09/08 00:57:49;;;;;;;6.75;5.07;;;;;;;;;;5104457;28;20059;-65
2023/09/08 01:00:17;;;;;;;8.65;5.30;;;;;;;;;;5105014;28;20052;-65
2023/09/08 01:02:45;;;;;;;8.65;5.28;;;;;;;;;;5104971;28;20499;-65
2023/09/08 01:05:12;;;;;;;8.13;5.63;;;;;;;;;;5099187;28;20056;-65
2023/09/08 01:07:40;;;;;;;7.18;5.28;;;;;;;;;;5099944;28;20047;-64
2023/09/08 01:10:08;;;;;;;8.75;5.57;;;;;;;;;;5103663;28;20044;-65
2023/09/08 01:12:36;;;;;;;10.32;5.68;;;;;;;;;;5104670;28;20050;-64
2023/09/08 01:15:05;;;;;;;7.65;5.28;;;;;;;;;;5102602;27;20044;-64
2023/09/08 01:17:32;;;;;;;12.35;5.53;;;;;;;;;;5101430;27;20059;-65
2023/09/08 01:20:03;;;;;;;9.05;5.35;;;;;;;;;;5105737;28;20461;-65
2023/09/08 01:22:40;;;;;;;7.03;5.32;;;;;;;;;;5109511;28;20043;-65
2023/09/08 01:25:11;;;;;;;8.05;4.97;;;;;;;;;;5100050;28;20056;-65
2023/09/08 01:27:39;;;;;;;9.20;5.20;;;;;;;;;;5104541;28;20513;-65
2023/09/08 01:30:07;;;;;;;7.57;5.40;;;;;;;;;;5109866;27;20521;-64
2023/09/08 01:32:35;;;;;;;7.47;5.47;;;;;;;;;;5111296;27;20055;-65
2023/09/08 01:35:03;;;;;;;8.85;5.47;;;;;;;;;;5101537;28;20040;-65
2023/09/08 01:37:30;;;;;;;10.48;5.90;;;;;;;;;;5103156;27;20059;-65
2023/09/08 01:39:57;;;;;;;9.27;5.97;;;;;;;;;;5098020;28;20042;-65
2023/09/08 01:42:26;;;;;;;6.65;5.25;;;;;;;;;;5102463;27;20048;-65
2023/09/08 01:44:53;;;;;;;8.13;6.07;;;;;;;;;;5108763;28;20044;-64
2023/09/08 01:47:20;;;;;;;10.63;5.70;;;;;;;;;;5111113;27;20394;-65
2023/09/08 01:49:47;;;;;;;6.80;5.38;;;;;;;;;;5104698;27;20047;-65
2023/09/08 01:52:14;;;;;;;6.70;5.10;;;;;;;;;;5107748;28;20395;-64
2023/09/08 01:54:42;;;;;;;5.72;5.10;;;;;;;;;;5110528;28;20051;-65
2023/09/08 01:57:09;;;;;;;7.07;5.30;;;;;;;;;;5111498;27;20169;-65
2023/09/08 01:59:37;;;;;;;7.93;5.80;;;;;;;;;;5106527;28;20051;-65
2023/09/08 02:02:06;;;;;;;7.47;5.80;;;;;;;;;;5108687;28;20043;-64
2023/09/08 02:04:33;;;;;;;10.18;5.80;;;;;;;;;;5088135;28;20737;-64
2023/09/08 02:07:01;;;;;;;8.73;6.05;;;;;;;;;;5108329;28;20051;-65
2023/09/08 02:09:32;;;;;;;9.50;5.88;;;;;;;;;;5109523;28;20494;-65
2023/09/08 02:11:59;;;;;;;8.10;5.60;;;;;;;;;;5101649;27;20641;-65
2023/09/08 02:14:27;;;;;;;10.10;5.90;;;;;;;;;;5106854;27;20077;-64
2023/09/08 02:16:56;;;;;;;8.88;6.07;;;;;;;;;;5102757;27;20055;-64
2023/09/08 02:19:23;;;;;;;8.43;5.63;;;;;;;;;;5108058;28;20066;-65
2023/09/08 02:21:50;;;;;;;8.45;5.68;;;;;;;;;;5108499;28;20043;-64
2023/09/08 02:24:18;;;;;;;9.20;6.53;;;;;;;;;;5106295;28;20502;-65
2023/09/08 02:26:45;;;;;;;10.20;6.13;;;;;;;;;;5104318;28;20056;-64
2023/09/08 02:29:12;;;;;;;9.27;6.30;;;;;;;;;;5103332;28;20039;-65
2023/09/08 02:31:39;;;;;;;8.18;5.82;;;;;;;;;;5104180;27;20055;-65
2023/09/08 02:34:08;;;;;;;8.05;5.78;;;;;;;;;;5114374;27;20048;-65
2023/09/08 02:36:35;;;;;;;7.78;6.13;;;;;;;;;;5103521;28;20050;-65
2023/09/08 02:39:02;;;;;;;9.20;5.78;;;;;;;;;;5108195;28;20138;-65
2023/09/08 02:41:30;;;;;;;7.70;5.72;;;;;;;;;;5110083;28;20285;-64
2023/09/08 02:43:57;;;;;;;8.40;5.97;;;;;;;;;;5102623;28;20048;-65
2023/09/08 02:46:24;;;;;;;8.52;6.03;;;;;;;;;;5104746;28;20058;-65
2023/09/08 02:48:52;;;;;;;8.85;6.30;;;;;;;;;;5104268;28;20391;-65
2023/09/08 02:51:21;;;;;;;15.85;6.57;;;;;;;;;;5102504;28;20483;-65
2023/09/08 02:53:48;;;;;;;8.65;6.13;;;;;;;;;;5107500;27;20047;-64
2023/09/08 02:56:15;;;;;;;8.30;6.03;;;;;;;;;;5107007;27;20063;-64
2023/09/08 02:58:44;;;;;;;8.40;6.25;;;;;;;;;;5101458;28;20052;-64
2023/09/08 03:01:13;;;;;;;11.60;6.10;;;;;;;;;;5109068;27;20083;-66
2023/09/08 03:03:40;;;;;;;9.23;5.85;;;;;;;;;;5098616;27;20498;-65
2023/09/08 03:06:08;;;;;;;7.90;5.68;;;;;;;;;;5105028;28;20055;-66
2023/09/08 03:08:37;;;;;;;9.05;6.32;;;;;;;;;;5107113;27;20063;-65
2023/09/08 03:11:05;;;;;;;9.32;6.07;;;;;;;;;;5106839;28;20120;-65
2023/09/08 03:13:33;;;;;;;7.88;6.10;;;;;;;;;;5104871;27;20128;-65
2023/09/08 03:16:04;;;;;;;10.25;5.75;;;;;;;;;;5101639;28;20048;-65
2023/09/08 03:18:32;;;;;;;8.05;5.72;;;;;;;;;;5111888;27;20618;-65
2023/09/08 03:21:00;;;;;;;9.40;6.47;;;;;;;;;;5108611;28;20044;-64
2023/09/08 03:23:27;;;;;;;8.23;6.22;;;;;;;;;;5108261;27;20051;-64
2023/09/08 03:25:56;;;;;;;9.20;6.50;;;;;;;;;;5101192;28;20035;-65
2023/09/08 03:28:23;;;;;;;8.25;6.43;;;;;;;;;;5109777;28;20062;-64
2023/09/08 03:30:50;;;;;;;7.65;6.05;;;;;;;;;;5104504;27;20080;-66
2023/09/08 03:33:18;;;;;;;9.63;7.25;;;;;;;;;;5105848;28;20051;-65
2023/09/08 03:35:45;;;;;;;9.63;7.00;;;;;;;;;;5101086;28;20422;-65
2023/09/08 03:38:12;;;;;;;9.80;6.78;;;;;;;;;;5111926;27;20509;-64
2023/09/08 03:40:39;;;;;;;10.52;6.30;;;;;;;;;;5108044;28;20054;-64
2023/09/08 03:43:08;;;;;;;9.18;6.63;;;;;;;;;;5107306;28;20062;-65
2023/09/08 03:45:35;;;;;;;10.32;7.00;;;;;;;;;;5103741;28;20521;-64
2023/09/08 03:48:02;;;;;;;8.95;6.70;;;;;;;;;;5089047;28;20047;-64
2023/09/08 03:50:29;;;;;;;9.15;6.93;;;;;;;;;;5103878;27;20058;-65
2023/09/08 03:52:57;;;;;;;10.13;7.00;;;;;;;;;;5107048;28;20047;-64
2023/09/08 03:55:24;;;;;;;10.07;6.90;;;;;;;;;;5108596;28;20059;-65
2023/09/08 03:57:51;;;;;;;10.90;6.80;;;;;;;;;;5105439;27;20047;-64
2023/09/08 04:00:21;;;;;;;10.07;6.82;;;;;;;;;;5100757;28;20059;-64
2023/09/08 04:02:49;;;;;;;11.10;7.18;;;;;;;;;;5084730;28;20090;-66
2023/09/08 04:05:17;;;;;;;9.40;6.43;;;;;;;;;;5104850;28;20044;-64
2023/09/08 04:07:44;;;;;;;10.85;6.38;;;;;;;;;;5099482;28;20035;-65
2023/09/08 04:10:12;;;;;;;9.15;6.53;;;;;;;;;;5097777;28;20062;-64
2023/09/08 04:12:39;;;;;;;9.68;7.05;;;;;;;;;;5103271;28;20051;-65
2023/09/08 04:15:07;;;;;;;9.13;6.50;;;;;;;;;;5078870;28;20410;-64
2023/09/08 04:17:35;;;;;;;9.68;7.05;;;;;;;;;;5104727;28;20054;-64
2023/09/08 04:20:05;;;;;;;8.57;6.80;;;;;;;;;;5104322;28;20122;-64
2023/09/08 04:22:32;;;;;;;11.05;7.32;;;;;;;;;;5109936;28;20133;-65
2023/09/08 04:24:59;;;;;;;11.20;7.38;;;;;;;;;;5102162;28;20545;-64
2023/09/08 04:27:26;;;;;;;10.18;7.47;;;;;;;;;;5098549;28;20046;-64
2023/09/08 04:29:54;;;;;;;10.02;6.90;;;;;;;;;;5107004;28;20046;-64
2023/09/08 04:32:21;;;;;;;10.50;7.03;;;;;;;;;;5104167;28;20058;-64
2023/09/08 04:34:50;;;;;;;11.43;7.43;;;;;;;;;;5104590;28;20044;-65
2023/09/08 04:37:17;;;;;;;10.85;7.65;;;;;;;;;;5108743;28;20075;-65
2023/09/08 04:39:44;;;;;;;9.73;7.00;;;;;;;;;;5104078;28;20048;-64
2023/09/08 04:42:12;;;;;;;9.52;7.45;;;;;;;;;;5109512;28;20502;-65
2023/09/08 04:44:40;;;;;;;10.00;7.60;;;;;;;;;;5111344;28;20044;-65
2023/09/08 04:47:07;;;;;;;9.95;7.30;;;;;;;;;;5112323;27;20058;-64
2023/09/08 04:49:34;;;;;;;11.05;7.45;;;;;;;;;;5101087;27;20079;-64
2023/09/08 04:52:03;;;;;;;12.68;7.18;;;;;;;;;;5104565;27;20047;-64
2023/09/08 04:54:31;;;;;;;11.02;7.35;;;;;;;;;;5109804;27;20048;-64
2023/09/08 04:56:59;;;;;;;10.65;7.07;;;;;;;;;;5108204;28;20043;-64
2023/09/08 04:59:26;;;;;;;11.00;7.47;;;;;;;;;;5114757;27;20064;-64
2023/09/08 05:01:53;;;;;;;10.50;6.82;;;;;;;;;;5105582;27;20051;-65
2023/09/08 05:04:20;;;;;;;11.73;7.18;;;;;;;;;;5104468;28;20483;-64
2023/09/08 05:06:48;;;;;;;9.50;7.03;;;;;;;;;;5100169;27;20054;-64
2023/09/08 05:09:16;;;;;;;9.25;7.20;;;;;;;;;;5110849;28;20406;-65
2023/09/08 05:11:43;;;;;;;13.02;7.05;;;;;;;;;;5108474;28;20471;-65
2023/09/08 05:14:11;;;;;;;12.57;8.00;;;;;;;;;;5104164;27;20570;-66
2023/09/08 05:16:45;;;;;;;9.63;7.53;;;;;;;;;;5112724;27;20056;-64
2023/09/08 05:19:12;;;;;;;11.02;7.38;;;;;;;;;;5109048;27;20050;-64
2023/09/08 05:21:40;;;;;;;10.40;7.20;;;;;;;;;;5101205;28;20079;-65
2023/09/08 05:24:07;;;;;;;11.98;7.03;;;;;;;;;;5114585;27;20059;-65
2023/09/08 05:26:38;;;;;;;12.60;7.30;;;;;;;;;;5105811;28;20066;-64
2023/09/08 05:29:05;;;;;;;10.10;7.32;;;;;;;;;;5103823;28;20051;-66
2023/09/08 05:31:32;;;;;;;13.20;7.55;;;;;;;;;;5105845;28;20040;-63
2023/09/08 05:33:59;;;;;;;11.98;7.60;;;;;;;;;;5107805;28;20487;-64
2023/09/08 05:36:27;;;;;;;11.52;6.90;;;;;;;;;;5106930;28;20051;-64
2023/09/08 05:38:54;;;;;;;10.57;7.47;;;;;;;;;;5105220;28;20047;-64
2023/09/08 05:41:21;;;;;;;9.73;7.25;;;;;;;;;;5083947;28;20051;-64
2023/09/08 05:43:50;;;;;;;10.13;7.10;;;;;;;;;;5108599;27;20048;-64
2023/09/08 05:46:18;;;;;;;11.32;7.10;;;;;;;;;;5104738;27;20479;-64
2023/09/08 05:48:45;;;;;;;12.52;7.45;;;;;;;;;;5103385;27;20059;-64
2023/09/08 05:51:12;;;;;;;10.63;6.90;;;;;;;;;;5104029;28;20047;-64
2023/09/08 05:53:40;;;;;;;12.10;7.93;;;;;;;;;;5106383;28;20070;-64
2023/09/08 05:56:07;;;;;;;12.85;7.72;;;;;;;;;;5100783;27;21266;-64
2023/09/08 05:58:34;;;;;;;11.73;7.03;;;;;;;;;;5095776;28;20101;-63
2023/09/08 06:01:03;;;;;;;10.30;7.25;;;;;;;;;;5088656;28;20061;-64
2023/09/08 06:03:30;;;;;;;11.63;7.47;;;;;;;;;;5110615;28;20055;-63
2023/09/08 06:05:57;;;;;;;11.27;7.53;;;;;;;;;;5110308;27;20044;-64
2023/09/08 06:08:25;;;;;;;10.75;6.60;;;;;;;;;;5086629;28;20063;-65
2023/09/08 06:10:52;;;;;;;10.48;7.80;;;;;;;;;;5108991;28;20097;-64
2023/09/08 06:13:19;;;;;;;9.95;7.32;;;;;;;;;;5108416;28;20380;-64
2023/09/08 06:15:46;;;;;;;9.93;7.43;;;;;;;;;;5099976;27;20040;-65
2023/09/08 06:18:15;;;;;;;9.93;7.70;;;;;;;;;;5108578;27;20463;-64
2023/09/08 06:20:46;;;;;;;10.55;7.82;;;;;;;;;;5105938;27;20047;-64
2023/09/08 06:23:13;;;;;;;10.38;7.50;;;;;;;;;;5100334;28;20059;-64
2023/09/08 06:25:40;;;;;;;11.90;7.53;;;;;;;;;;5100446;28;20070;-64
2023/09/08 06:28:08;;;;;;;10.98;8.52;;;;;;;;;;5111255;27;20052;-63
2023/09/08 06:30:35;;;;;;;12.52;8.32;;;;;;;;;;5111438;27;20040;-64
2023/09/08 06:33:02;;;;;;;11.73;7.43;;;;;;;;;;5105548;27;20077;-64
2023/09/08 06:35:31;;;;;;;11.20;7.43;;;;;;;;;;5109157;27;20055;-64
2023/09/08 06:37:58;;;;;;;11.18;8.35;;;;;;;;;;5106891;27;20040;-64
2023/09/08 06:40:25;;;;;;;11.95;7.25;;;;;;;;;;5105141;28;20051;-63
2023/09/08 06:42:53;;;;;;;10.57;7.53;;;;;;;;;;5102458;27;20055;-63
2023/09/08 06:45:20;;;;;;;14.13;8.02;;;;;;;;;;5110841;27;20078;-64
2023/09/08 06:47:49;;;;;;;11.60;8.10;;;;;;;;;;5106618;28;20440;-65
2023/09/08 06:50:17;;;;;;;9.35;7.03;;;;;;;;;;5107789;28;20463;-64
2023/09/08 06:52:45;;;;;;;10.65;7.65;;;;;;;;;;5106515;27;20055;-64
2023/09/08 06:55:16;;;;;;;11.80;7.50;;;;;;;;;;5107973;28;20047;-64
2023/09/08 06:57:43;;;;;;;9.48;6.47;;;;;;;;;;5108906;27;20553;-64
2023/09/08 07:00:12;;;;;;;11.30;7.38;;;;;;;;;;5100879;28;20051;-63
2023/09/08 07:02:39;;;;;;;8.88;6.20;;;;;;;;;;5106544;28;20055;-64
2023/09/08 07:05:08;;;;;;;8.88;6.75;;;;;;;;;;5107967;27;20055;-64
2023/09/08 07:07:35;;;;;;;9.00;6.78;;;;;;;;;;5104977;27;20534;-64
2023/09/08 07:10:04;;;;;;;10.55;6.88;;;;;;;;;;5106560;27;20445;-64
2023/09/08 07:12:31;;;;;;;9.20;6.68;;;;;;;;;;5108641;27;20047;-64
2023/09/08 07:14:59;;;;;;;9.40;7.13;;;;;;;;;;5086210;28;20150;-64
2023/09/08 07:17:26;;;;;;;8.88;6.72;;;;;;;;;;5107063;27;20055;-64
2023/09/08 07:19:54;;;;;;;8.40;6.85;;;;;;;;;;5104604;28;20073;-64
2023/09/08 07:22:21;;;;;;;11.07;6.95;;;;;;;;;;5106482;28;20118;-64
2023/09/08 07:24:48;;;;;;;9.32;6.55;;;;;;;;;;5107590;28;20054;-64
2023/09/08 07:27:18;;;;;;;8.43;6.18;;;;;;;;;;5101792;28;20494;-64
2023/09/08 07:29:47;;;;;;;10.57;6.35;;;;;;;;;;5108168;27;20047;-64
2023/09/08 07:32:15;;;;;;;7.72;5.70;;;;;;;;;;5103163;28;20118;-64
2023/09/08 07:34:42;;;;;;;8.80;6.43;;;;;;;;;;5098983;27;20056;-64
2023/09/08 07:37:09;;;;;;;12.95;6.30;;;;;;;;;;5104151;28;20044;-63
2023/09/08 07:39:36;;;;;;;8.13;6.15;;;;;;;;;;5105803;28;20048;-64
2023/09/08 07:42:04;;;;;;;10.65;6.20;;;;;;;;;;5099804;27;20446;-64
2023/09/08 07:44:33;;;;;;;10.02;7.10;;;;;;;;;;5108912;28;20494;-64
2023/09/08 07:47:00;;;;;;;11.77;6.57;;;;;;;;;;5107355;27;21329;-65
2023/09/08 07:49:27;;;;;;;10.98;6.88;;;;;;;;;;5106370;28;20051;-64
2023/09/08 07:51:55;;;;;;;8.20;5.93;;;;;;;;;;5101237;28;20526;-64
2023/09/08 07:54:22;;;;;;;9.57;5.97;;;;;;;;;;5105640;27;20040;-64
2023/09/08 07:56:49;;;;;;;8.93;6.25;;;;;;;;;;5102347;27;20043;-64
2023/09/08 07:59:17;;;;;;;11.90;6.43;;;;;;;;;;5100254;28;20552;-65
2023/09/08 08:01:45;;;;;;;9.07;6.00;;;;;;;;;;5101531;28;20591;-64
2023/09/08 08:04:12;;;;;;;9.98;5.97;;;;;;;;;;5109155;28;20054;-64
2023/09/08 08:06:40;;;;;;;8.18;5.90;;;;;;;;;;5098883;28;20475;-64
2023/09/08 08:09:07;;;;;;;8.63;6.03;;;;;;;;;;5097027;28;20067;-64
2023/09/08 08:11:34;;;;;;;7.95;6.03;;;;;;;;;;5086662;28;20048;-64
2023/09/08 08:14:01;;;;;;;8.05;6.35;;;;;;;;;;5110418;28;20487;-64
2023/09/08 08:16:29;;;;;;;7.57;6.05;;;;;;;;;;5102179;28;20445;-64
2023/09/08 08:18:57;;;;;;;9.10;6.38;;;;;;;;;;5107754;28;20054;-64
2023/09/08 08:21:25;;;;;;;9.90;6.43;;;;;;;;;;5106677;28;20517;-64
2023/09/08 08:23:52;;;;;;;13.25;6.60;;;;;;;;;;5084846;28;20039;-64
2023/09/08 08:26:19;;;;;;;7.18;5.68;;;;;;;;;;5102438;28;20505;-64
2023/09/08 08:28:46;;;;;;;9.65;6.47;;;;;;;;;;5094911;28;20063;-64
2023/09/08 08:31:14;;;;;;;13.05;6.25;;;;;;;;;;5108904;28;20479;-64
2023/09/08 08:33:41;;;;;;;7.85;6.03;;;;;;;;;;5090353;28;20048;-64
2023/09/08 08:36:09;;;;;;;10.82;6.90;;;;;;;;;;5111213;28;20086;-65
2023/09/08 08:38:37;;;;;;;9.13;6.50;;;;;;;;;;5105567;27;20051;-64
2023/09/08 08:41:05;;;;;;;13.50;6.05;;;;;;;;;;5103669;28;20596;-64
2023/09/08 08:43:33;;;;;;;9.35;5.72;;;;;;;;;;5112904;28;20479;-64
2023/09/08 08:46:01;;;;;;;10.60;5.97;;;;;;;;;;5085805;28;20063;-64
2023/09/08 08:48:29;;;;;;;9.48;6.72;;;;;;;;;;5104959;28;20048;-64
2023/09/08 08:50:57;;;;;;;9.38;6.03;;;;;;;;;;5106086;28;20048;-64
2023/09/08 08:53:27;;;;;;;8.23;5.85;;;;;;;;;;5104339;28;20050;-64
2023/09/08 08:55:55;;;;;;;7.57;5.30;;;;;;;;;;5103756;27;21351;-64
2023/09/08 08:58:25;;;;;;;8.60;5.47;;;;;;;;;;5109129;27;20043;-64
2023/09/08 09:00:53;;;;;;;10.68;6.05;;;;;;;;;;5113004;27;20047;-65
2023/09/08 09:03:21;;;;;;;7.40;5.38;;;;;;;;;;5105436;27;20039;-65
2023/09/08 09:05:49;;;;;;;13.77;5.55;;;;;;;;;;5111544;27;20043;-64
2023/09/08 09:08:18;;;;;;;9.32;5.63;;;;;;;;;;5107492;28;20750;-64
2023/09/08 09:10:46;;;;;;;10.77;6.00;;;;;;;;;;5105988;28;20105;-64
2023/09/08 09:13:14;;;;;;;8.38;5.20;;;;;;;;;;5107993;27;20044;-64
2023/09/08 09:15:41;;;;;;;10.50;5.30;;;;;;;;;;5106980;27;20059;-64
2023/09/08 09:18:09;;;;;;;7.60;5.38;;;;;;;;;;5098846;27;20043;-65
2023/09/08 09:20:36;;;;;;;9.32;5.15;;;;;;;;;;5112595;28;20121;-64
2023/09/08 09:23:03;;;;;;;9.43;5.68;;;;;;;;;;5105683;27;20047;-64
2023/09/08 09:25:31;;;;;;;7.65;5.70;;;;;;;;;;5108407;27;20052;-64
2023/09/08 09:28:01;;;;;;;6.97;5.10;;;;;;;;;;5096907;28;20082;-64
2023/09/08 09:30:30;;;;;;;7.57;5.03;;;;;;;;;;5102041;28;20062;-64
2023/09/08 09:33:01;;;;;;;6.70;5.05;;;;;;;;;;5109250;27;20167;-64
2023/09/08 09:35:41;;;;;;;7.90;5.13;;;;;;;;;;5107843;28;20047;-65
2023/09/08 09:38:09;;;;;;;7.45;4.80;;;;;;;;;;5109929;28;20051;-65
2023/09/08 09:40:36;;;;;;;8.55;5.05;;;;;;;;;;5107050;28;20059;-64
2023/09/08 09:43:05;;;;;;;8.23;5.65;;;;;;;;;;5101887;27;20048;-64
2023/09/08 09:45:33;;;;;;;7.22;5.65;;;;;;;;;;5103568;28;20047;-64
2023/09/08 09:48:00;;;;;;;7.60;5.57;;;;;;;;;;5100800;28;20139;-65
2023/09/08 09:50:32;;;;;;;7.70;5.10;;;;;;;;;;5109277;28;20471;-64
2023/09/08 09:53:00;;;;;;;7.93;5.32;;;;;;;;;;5108691;27;20043;-65
2023/09/08 09:55:28;;;;;;;8.10;5.68;;;;;;;;;;5106352;27;20465;-65
2023/09/08 09:57:58;;;;;;;8.82;5.97;;;;;;;;;;5105398;28;20060;-64
2023/09/08 10:00:28;;;;;;;5.97;4.68;;;;;;;;;;5100329;28;20108;-65
2023/09/08 10:02:55;;;;;;;6.47;5.00;;;;;;;;;;5106621;27;20055;-66
2023/09/08 10:05:22;;;;;;;8.75;5.05;;;;;;;;;;5110335;27;20075;-65
2023/09/08 10:07:51;;;;;;;7.82;5.38;;;;;;;;;;5109026;28;20051;-65
2023/09/08 10:10:18;;;;;;;5.90;4.50;;;;;;;;;;5101840;28;20059;-65
2023/09/08 10:12:46;;;;;;;6.15;5.00;;;;;;;;;;5110806;28;20043;-65
2023/09/08 10:15:14;;;;;;;7.03;4.80;;;;;;;;;;5111251;28;20059;-65
2023/09/08 10:17:46;;;;;;;8.23;5.10;;;;;;;;;;5085839;28;20048;-64
2023/09/08 10:20:15;;;;;;;7.03;4.82;;;;;;;;;;5102874;27;20044;-65
2023/09/08 10:22:44;;;;;;;6.95;5.13;;;;;;;;;;5108741;28;20075;-64
2023/09/08 10:25:14;;;;;;;8.45;5.43;;;;;;;;;;5106133;27;20048;-65
2023/09/08 10:27:42;;;;;;;6.57;5.07;;;;;;;;;;5105473;28;20052;-65
2023/09/08 10:30:10;;;;;;;7.30;5.40;;;;;;;;;;5103859;27;20044;-65
2023/09/08 10:32:38;;;;;;;7.53;5.05;;;;;;;;;;5107644;28;20138;-64
2023/09/08 10:35:07;;;;;;;8.55;4.75;;;;;;;;;;5107241;27;20058;-65
2023/09/08 10:37:35;;;;;;;8.73;5.10;;;;;;;;;;5109489;27;20126;-65
2023/09/08 10:40:20;;;;;;;7.60;4.88;;;;;;;;;;5110231;28;20497;-65
2023/09/08 10:42:48;;;;;;;9.10;6.35;;;;;;;;;;5078809;28;20055;-66
2023/09/08 10:45:20;;;;;;;8.80;4.97;;;;;;;;;;5086159;28;20384;-65
2023/09/08 10:47:58;;;;;;;9.07;5.23;;;;;;;;;;5102107;27;20055;-65
2023/09/08 10:50:32;;;;;;;7.53;4.97;;;;;;;;;;5102100;27;20346;-64
2023/09/08 10:53:06;;;;;;;7.20;4.82;;;;;;;;;;5102409;28;20060;-65
2023/09/08 10:55:37;;;;;;;6.75;4.90;;;;;;;;;;5106080;28;20073;-64
2023/09/08 10:58:05;;;;;;;9.70;4.90;;;;;;;;;;5105936;27;20047;-65
2023/09/08 11:00:44;;;;;;;8.18;4.47;;;;;;;;;;5100412;28;20044;-64
2023/09/08 11:03:11;;;;;;;9.60;5.60;;;;;;;;;;5108073;28;20043;-65
2023/09/08 11:05:40;;;;;;;8.10;4.53;;;;;;;;;;5110982;27;20053;-64
2023/09/08 11:08:07;;;;;;;7.22;4.45;;;;;;;;;;5084431;27;20043;-65
2023/09/08 11:10:35;;;;;;;7.93;4.88;;;;;;;;;;5105270;28;20050;-65
2023/09/08 11:13:03;;;;;;;8.40;4.53;;;;;;;;;;5111693;27;20097;-65
2023/09/08 11:15:31;;;;;;;6.55;4.10;;;;;;;;;;5107221;27;20125;-64
2023/09/08 11:17:58;;;;;;;6.47;4.05;;;;;;;;;;5104724;28;20058;-65
2023/09/08 11:20:29;;;;;;;6.30;3.78;;;;;;;;;;5094634;28;20138;-65
2023/09/08 11:22:57;;;;;;;5.65;4.07;;;;;;;;;;5102269;28;20065;-65
2023/09/08 11:25:25;;;;;;;6.25;4.43;;;;;;;;;;5108788;27;20442;-66
2023/09/08 11:27:52;;;;;;;6.25;3.85;;;;;;;;;;5100874;28;20044;-65
2023/09/08 11:30:20;;;;;;;6.65;3.72;;;;;;;;;;5108222;27;20043;-65
2023/09/08 11:32:48;;;;;;;4.65;3.63;;;;;;;;;;5100563;27;20083;-65
2023/09/08 11:35:16;;;;;;;4.45;3.05;;;;;;;;;;5109258;27;20048;-64
2023/09/08 11:37:43;;;;;;;4.40;3.05;;;;;;;;;;5108611;27;20056;-64
2023/09/08 11:40:13;;;;;;;4.25;3.17;;;;;;;;;;5102754;28;20051;-65
2023/09/08 11:42:43;;;;;;;4.15;3.70;;;;;;;;;;5102033;28;20074;-65
2023/09/08 11:45:12;;;;;;;4.80;3.38;;;;;;;;;;5101850;27;20048;-66
2023/09/08 11:47:42;;;;;;;5.05;3.60;;;;;;;;;;5102076;28;20112;-67
2023/09/08 11:50:11;;;;;;;5.28;3.30;;;;;;;;;;5100200;28;20097;-65
2023/09/08 11:52:39;;;;;;;5.35;3.35;;;;;;;;;;5096697;27;20060;-66
2023/09/08 11:55:06;;;;;;;3.90;2.97;;;;;;;;;;5089870;28;20477;-66
2023/09/08 11:57:35;;;;;;;5.60;3.80;;;;;;;;;;5107196;27;20074;-66
2023/09/08 12:00:05;;;;;;;4.70;3.30;;;;;;;;;;5106332;28;20445;-65
2023/09/08 12:02:36;;;;;;;3.70;3.17;;;;;;;;;;5077137;28;20055;-65
2023/09/08 12:05:03;;;;;;;4.55;3.47;;;;;;;;;;5077942;28;20399;-65
2023/09/08 12:07:31;;;;;;;3.85;3.40;;;;;;;;;;5110087;27;20054;-66
2023/09/08 12:09:58;;;;;;;4.63;3.50;;;;;;;;;;5078107;28;20048;-65
2023/09/08 12:12:27;;;;;;;6.82;4.05;;;;;;;;;;5101661;28;20105;-66
2023/09/08 12:14:55;;;;;;;5.15;3.60;;;;;;;;;;5092774;28;20048;-66
2023/09/08 12:17:25;;;;;;;5.40;3.60;;;;;;;;;;5105795;27;20040;-66
2023/09/08 12:19:52;;;;;;;6.57;4.00;;;;;;;;;;5097189;28;20090;-66
2023/09/08 12:22:22;;;;;;;9.05;3.80;;;;;;;;;;5088822;28;20092;-66
2023/09/08 12:24:50;;;;;;;6.03;3.90;;;;;;;;;;5104911;28;20070;-66
2023/09/08 12:27:18;;;;;;;5.43;3.70;;;;;;;;;;5098295;28;20372;-66
2023/09/08 12:29:54;;;;;;;5.43;3.97;;;;;;;;;;5100398;28;20040;-65
2023/09/08 12:32:23;;;;;;;5.20;3.80;;;;;;;;;;5088452;28;20112;-65
2023/09/08 12:34:50;;;;;;;6.22;4.75;;;;;;;;;;5098841;28;20154;-66
2023/09/08 12:37:21;;;;;;;5.82;3.90;;;;;;;;;;5110757;28;20043;-66
2023/09/08 12:39:48;;;;;;;8.00;4.47;;;;;;;;;;5107377;28;20047;-66
2023/09/08 12:42:15;;;;;;;7.07;3.88;;;;;;;;;;5103160;28;20142;-66
2023/09/08 12:44:43;;;;;;;3.28;2.97;;;;;;;;;;5114087;28;20494;-66
2023/09/08 12:47:12;;;;;;;4.07;3.25;;;;;;;;;;5107938;28;20131;-65
2023/09/08 12:49:41;;;;;;;3.60;3.17;;;;;;;;;;5106806;28;20468;-66
2023/09/08 12:52:09;;;;;;;4.57;3.25;;;;;;;;;;5087404;28;20066;-66
2023/09/08 12:54:36;;;;;;;4.93;3.28;;;;;;;;;;5109946;28;20055;-67
2023/09/08 12:57:04;;;;;;;5.25;3.13;;;;;;;;;;5106054;28;20054;-66
2023/09/08 12:59:31;;;;;;;4.72;3.08;;;;;;;;;;5098347;28;20507;-66
2023/09/08 13:01:58;;;;;;;4.85;2.80;;;;;;;;;;5107835;28;20051;-66
2023/09/08 13:04:26;;;;;;;5.13;3.10;;;;;;;;;;5106516;28;20071;-67
2023/09/08 13:06:54;;;;;;;4.30;3.08;;;;;;;;;;5103231;28;20047;-66
2023/09/08 13:09:21;;;;;;;3.38;3.00;;;;;;;;;;5112752;27;20055;-66
2023/09/08 13:11:51;;;;;;;4.55;3.15;;;;;;;;;;5102600;27;20109;-65
2023/09/08 13:14:18;;;;;;;8.50;3.08;;;;;;;;;;5106954;27;20085;-66
2023/09/08 13:16:45;;;;;;;3.83;3.05;;;;;;;;;;5104840;27;20490;-67
2023/09/08 13:19:12;;;;;;;3.50;3.08;;;;;;;;;;5114401;27;20548;-65
2023/09/08 13:21:39;;;;;;;4.85;3.25;;;;;;;;;;5107272;28;20038;-66
2023/09/08 13:24:08;;;;;;;6.40;3.67;;;;;;;;;;5110769;28;20050;-66
2023/09/08 13:26:36;;;;;;;6.53;3.55;;;;;;;;;;5106486;27;20483;-66
2023/09/08 13:29:03;;;;;;;4.20;3.50;;;;;;;;;;5106472;28;20059;-66
2023/09/08 13:31:30;;;;;;;5.68;3.55;;;;;;;;;;5109644;27;20498;-66
2023/09/08 13:33:58;;;;;;;5.93;3.30;;;;;;;;;;5107794;28;20040;-67
2023/09/08 13:36:25;;;;;;;7.15;3.38;;;;;;;;;;5107567;28;20054;-66
2023/09/08 13:38:52;;;;;;;4.25;3.85;;;;;;;;;;5109509;28;20048;-66
2023/09/08 13:41:21;;;;;;;3.95;3.30;;;;;;;;;;5108637;27;20055;-66
2023/09/08 13:43:48;;;;;;;4.25;3.85;;;;;;;;;;5108708;27;20043;-66
2023/09/08 13:46:15;;;;;;;4.47;3.83;;;;;;;;;;5112119;27;20052;-67
2023/09/08 13:48:42;;;;;;;8.02;4.15;;;;;;;;;;5109369;27;20047;-66
2023/09/08 13:51:10;;;;;;;6.18;3.90;;;;;;;;;;5105509;27;20508;-66
2023/09/08 13:53:38;;;;;;;4.07;3.67;;;;;;;;;;5108898;27;20052;-66
2023/09/08 13:56:05;;;;;;;6.13;4.03;;;;;;;;;;5099820;27;20044;-66
2023/09/08 13:58:34;;;;;;;5.15;3.97;;;;;;;;;;5089553;28;20144;-66
2023/09/08 14:01:01;;;;;;;4.72;3.67;;;;;;;;;;5107248;28;20039;-66
2023/09/08 14:03:28;;;;;;;4.43;4.03;;;;;;;;;;5109677;27;20475;-66
2023/09/08 14:05:56;;;;;;;4.95;3.85;;;;;;;;;;5111447;27;20478;-66
2023/09/08 14:08:23;;;;;;;5.50;3.92;;;;;;;;;;5091626;27;20059;-66
2023/09/08 14:10:51;;;;;;;4.25;3.85;;;;;;;;;;5106231;27;20044;-67
2023/09/08 14:13:18;;;;;;;5.40;3.88;;;;;;;;;;5102504;28;20110;-66
2023/09/08 14:15:47;;;;;;;3.88;3.30;;;;;;;;;;5090852;28;20059;-66
2023/09/08 14:18:14;;;;;;;4.20;3.63;;;;;;;;;;5106107;28;20055;-66
2023/09/08 14:20:42;;;;;;;3.88;3.30;;;;;;;;;;5112880;27;20051;-66
2023/09/08 14:23:09;;;;;;;4.93;3.58;;;;;;;;;;5103988;28;20054;-66
2023/09/08 14:25:36;;;;;;;4.10;3.45;;;;;;;;;;5101879;27;20040;-66
2023/09/08 14:28:04;;;;;;;4.03;3.63;;;;;;;;;;5110442;27;20052;-66
2023/09/08 14:30:31;;;;;;;4.25;3.42;;;;;;;;;;5098467;27;20063;-66
2023/09/08 14:33:00;;;;;;;4.03;3.58;;;;;;;;;;5110287;27;20367;-66
2023/09/08 14:35:27;;;;;;;3.78;3.40;;;;;;;;;;5109887;27;20055;-66
2023/09/08 14:37:54;;;;;;;4.97;3.47;;;;;;;;;;5109600;28;20173;-66
2023/09/08 14:40:23;;;;;;;3.92;3.42;;;;;;;;;;5107503;28;20044;-66
2023/09/08 14:42:51;;;;;;;4.20;3.80;;;;;;;;;;5107873;27;20050;-66
2023/09/08 14:45:18;;;;;;;6.82;3.60;;;;;;;;;;5107940;27;20399;-66